sensor_id;sensor_type;location;lat;lon;timestamp;temperature;humidity
15879;DHT22;61999;51.514;14.614;2023-07-28T00:01:58;11.90;74.70
15879;DHT22;61999;51.514;14.614;2023-07-28T00:04:27;11.90;74.80
15879;DHT22;61999;51.514;14.614;2023-07-28T00:06:55;11.80;74.50
15879;DHT22;61999;51.514;14.614;2023-07-28T00:09:23;11.90;74.70
15879;DHT22;61999;51.514;14.614;2023-07-28T00:11:51;12.00;74.40
15879;DHT22;61999;51.514;14.614;2023-07-28T00:14:19;12.00;74.60
15879;DHT22;61999;51.514;14.614;2023-07-28T00:16:47;11.80;75.00
15879;DHT22;61999;51.514;14.614;2023-07-28T00:19:15;12.00;74.70
15879;DHT22;61999;51.514;14.614;2023-07-28T00:21:45;11.90;75.00
15879;DHT22;61999;51.514;14.614;2023-07-28T00:24:12;11.80;74.80
15879;DHT22;61999;51.514;14.614;2023-07-28T00:26:40;11.80;75.50
15879;DHT22;61999;51.514;14.614;2023-07-28T00:29:08;11.70;75.30
15879;DHT22;61999;51.514;14.614;2023-07-28T00:31:36;11.70;75.80
15879;DHT22;61999;51.514;14.614;2023-07-28T00:34:04;11.70;76.10
15879;DHT22;61999;51.514;14.614;2023-07-28T00:36:32;11.90;75.60
15879;DHT22;61999;51.514;14.614;2023-07-28T00:39:02;12.00;75.40
15879;DHT22;61999;51.514;14.614;2023-07-28T00:41:30;12.00;75.20
15879;DHT22;61999;51.514;14.614;2023-07-28T00:43:58;11.90;75.60
15879;DHT22;61999;51.514;14.614;2023-07-28T00:46:26;11.80;75.20
15879;DHT22;61999;51.514;14.614;2023-07-28T00:48:54;11.90;75.60
15879;DHT22;61999;51.514;14.614;2023-07-28T00:51:22;11.80;75.30
15879;DHT22;61999;51.514;14.614;2023-07-28T00:53:51;11.90;76.70
15879;DHT22;61999;51.514;14.614;2023-07-28T00:56:22;11.90;75.80
15879;DHT22;61999;51.514;14.614;2023-07-28T00:58:50;11.90;75.30
15879;DHT22;61999;51.514;14.614;2023-07-28T01:01:18;11.80;75.80
15879;DHT22;61999;51.514;14.614;2023-07-28T01:03:46;11.90;75.90
15879;DHT22;61999;51.514;14.614;2023-07-28T01:06:20;11.90;75.80
15879;DHT22;61999;51.514;14.614;2023-07-28T01:09:02;11.70;75.80
15879;DHT22;61999;51.514;14.614;2023-07-28T01:11:33;12.00;76.00
15879;DHT22;61999;51.514;14.614;2023-07-28T01:14:01;11.90;76.20
15879;DHT22;61999;51.514;14.614;2023-07-28T01:16:29;11.90;76.10
15879;DHT22;61999;51.514;14.614;2023-07-28T01:18:57;12.00;76.00
15879;DHT22;61999;51.514;14.614;2023-07-28T01:21:28;12.10;75.70
15879;DHT22;61999;51.514;14.614;2023-07-28T01:24:04;12.00;75.60
15879;DHT22;61999;51.514;14.614;2023-07-28T01:26:40;12.00;76.00
15879;DHT22;61999;51.514;14.614;2023-07-28T01:29:08;12.00;76.00
15879;DHT22;61999;51.514;14.614;2023-07-28T01:31:37;12.10;75.70
15879;DHT22;61999;51.514;14.614;2023-07-28T01:34:05;12.10;75.30
15879;DHT22;61999;51.514;14.614;2023-07-28T01:36:32;12.10;75.70
15879;DHT22;61999;51.514;14.614;2023-07-28T01:39:00;12.20;75.10
15879;DHT22;61999;51.514;14.614;2023-07-28T01:41:28;12.30;75.30
15879;DHT22;61999;51.514;14.614;2023-07-28T01:43:58;12.20;75.40
15879;DHT22;61999;51.514;14.614;2023-07-28T01:46:26;12.20;75.70
15879;DHT22;61999;51.514;14.614;2023-07-28T01:48:53;12.20;75.30
15879;DHT22;61999;51.514;14.614;2023-07-28T01:51:21;12.40;74.70
15879;DHT22;61999;51.514;14.614;2023-07-28T01:53:49;12.40;75.00
15879;DHT22;61999;51.514;14.614;2023-07-28T01:56:17;12.30;75.10
15879;DHT22;61999;51.514;14.614;2023-07-28T01:58:45;12.30;75.00
15879;DHT22;61999;51.514;14.614;2023-07-28T02:01:14;12.20;75.30
15879;DHT22;61999;51.514;14.614;2023-07-28T02:03:42;12.20;75.50
15879;DHT22;61999;51.514;14.614;2023-07-28T02:06:10;12.30;75.40
15879;DHT22;61999;51.514;14.614;2023-07-28T02:08:38;12.30;75.20
15879;DHT22;61999;51.514;14.614;2023-07-28T02:11:06;12.40;75.10
15879;DHT22;61999;51.514;14.614;2023-07-28T02:13:34;12.30;75.40
15879;DHT22;61999;51.514;14.614;2023-07-28T02:16:02;12.50;74.90
15879;DHT22;61999;51.514;14.614;2023-07-28T02:18:31;12.60;74.60
15879;DHT22;61999;51.514;14.614;2023-07-28T02:20:59;12.60;74.60
15879;DHT22;61999;51.514;14.614;2023-07-28T02:23:27;12.70;74.30
15879;DHT22;61999;51.514;14.614;2023-07-28T02:25:55;12.70;74.40
15879;DHT22;61999;51.514;14.614;2023-07-28T02:28:23;12.80;74.30
15879;DHT22;61999;51.514;14.614;2023-07-28T02:30:51;12.80;74.20
15879;DHT22;61999;51.514;14.614;2023-07-28T02:33:19;12.70;74.40
15879;DHT22;61999;51.514;14.614;2023-07-28T02:35:48;12.60;74.80
15879;DHT22;61999;51.514;14.614;2023-07-28T02:38:16;12.50;74.80
15879;DHT22;61999;51.514;14.614;2023-07-28T02:40:44;12.50;75.40
15879;DHT22;61999;51.514;14.614;2023-07-28T02:43:12;12.40;75.90
15879;DHT22;61999;51.514;14.614;2023-07-28T02:45:40;12.40;75.90
15879;DHT22;61999;51.514;14.614;2023-07-28T02:48:08;12.40;76.10
15879;DHT22;61999;51.514;14.614;2023-07-28T02:50:36;12.40;76.00
15879;DHT22;61999;51.514;14.614;2023-07-28T02:53:06;12.50;75.80
15879;DHT22;61999;51.514;14.614;2023-07-28T02:55:40;12.30;76.10
15879;DHT22;61999;51.514;14.614;2023-07-28T02:58:09;12.20;76.80
15879;DHT22;61999;51.514;14.614;2023-07-28T03:00:37;12.20;77.10
15879;DHT22;61999;51.514;14.614;2023-07-28T03:03:05;12.10;77.70
15879;DHT22;61999;51.514;14.614;2023-07-28T03:05:33;12.10;77.70
15879;DHT22;61999;51.514;14.614;2023-07-28T03:08:01;12.10;77.50
15879;DHT22;61999;51.514;14.614;2023-07-28T03:10:31;12.00;77.90
15879;DHT22;61999;51.514;14.614;2023-07-28T03:12:59;12.20;77.40
15879;DHT22;61999;51.514;14.614;2023-07-28T03:15:27;12.20;77.20
15879;DHT22;61999;51.514;14.614;2023-07-28T03:17:55;12.30;77.00
15879;DHT22;61999;51.514;14.614;2023-07-28T03:20:23;12.30;77.10
15879;DHT22;61999;51.514;14.614;2023-07-28T03:22:51;12.20;77.30
15879;DHT22;61999;51.514;14.614;2023-07-28T03:25:21;12.20;77.50
15879;DHT22;61999;51.514;14.614;2023-07-28T03:27:50;12.30;77.10
15879;DHT22;61999;51.514;14.614;2023-07-28T03:30:20;12.50;76.40
15879;DHT22;61999;51.514;14.614;2023-07-28T03:32:48;12.40;76.80
15879;DHT22;61999;51.514;14.614;2023-07-28T03:35:16;12.40;76.60
15879;DHT22;61999;51.514;14.614;2023-07-28T03:37:44;12.40;76.70
15879;DHT22;61999;51.514;14.614;2023-07-28T03:40:12;12.30;77.50
15879;DHT22;61999;51.514;14.614;2023-07-28T03:42:40;12.30;77.50
15879;DHT22;61999;51.514;14.614;2023-07-28T03:45:10;12.20;78.10
15879;DHT22;61999;51.514;14.614;2023-07-28T03:47:37;12.10;78.70
15879;DHT22;61999;51.514;14.614;2023-07-28T03:50:06;11.90;78.90
15879;DHT22;61999;51.514;14.614;2023-07-28T03:52:35;12.00;78.50
15879;DHT22;61999;51.514;14.614;2023-07-28T03:55:03;11.80;78.90
15879;DHT22;61999;51.514;14.614;2023-07-28T03:57:31;11.90;79.60
15879;DHT22;61999;51.514;14.614;2023-07-28T03:59:59;12.00;79.40
15879;DHT22;61999;51.514;14.614;2023-07-28T04:02:29;12.10;78.90
15879;DHT22;61999;51.514;14.614;2023-07-28T04:04:57;12.00;79.10
15879;DHT22;61999;51.514;14.614;2023-07-28T04:07:25;12.20;78.50
15879;DHT22;61999;51.514;14.614;2023-07-28T04:09:53;12.30;78.20
15879;DHT22;61999;51.514;14.614;2023-07-28T04:12:21;12.30;78.10
15879;DHT22;61999;51.514;14.614;2023-07-28T04:14:49;12.30;77.80
15879;DHT22;61999;51.514;14.614;2023-07-28T04:17:17;12.40;77.60
15879;DHT22;61999;51.514;14.614;2023-07-28T04:19:46;12.50;77.10
15879;DHT22;61999;51.514;14.614;2023-07-28T04:22:14;12.40;77.30
15879;DHT22;61999;51.514;14.614;2023-07-28T04:24:47;12.40;77.90
15879;DHT22;61999;51.514;14.614;2023-07-28T04:27:15;12.50;77.10
15879;DHT22;61999;51.514;14.614;2023-07-28T04:29:43;12.30;77.30
15879;DHT22;61999;51.514;14.614;2023-07-28T04:32:13;12.50;77.20
15879;DHT22;61999;51.514;14.614;2023-07-28T04:34:42;12.50;76.70
15879;DHT22;61999;51.514;14.614;2023-07-28T04:37:12;12.50;76.90
15879;DHT22;61999;51.514;14.614;2023-07-28T04:39:39;12.40;77.30
15879;DHT22;61999;51.514;14.614;2023-07-28T04:42:07;12.30;77.50
15879;DHT22;61999;51.514;14.614;2023-07-28T04:44:37;12.20;77.50
15879;DHT22;61999;51.514;14.614;2023-07-28T04:47:06;12.20;77.90
15879;DHT22;61999;51.514;14.614;2023-07-28T04:49:34;12.20;77.80
15879;DHT22;61999;51.514;14.614;2023-07-28T04:52:02;12.40;77.30
15879;DHT22;61999;51.514;14.614;2023-07-28T04:54:31;12.40;77.20
15879;DHT22;61999;51.514;14.614;2023-07-28T04:56:59;12.30;77.40
15879;DHT22;61999;51.514;14.614;2023-07-28T04:59:27;12.20;77.60
15879;DHT22;61999;51.514;14.614;2023-07-28T05:01:55;12.30;77.30
15879;DHT22;61999;51.514;14.614;2023-07-28T05:04:23;12.30;77.30
15879;DHT22;61999;51.514;14.614;2023-07-28T05:06:51;12.10;77.90
15879;DHT22;61999;51.514;14.614;2023-07-28T05:09:19;11.90;78.50
15879;DHT22;61999;51.514;14.614;2023-07-28T05:11:48;12.00;78.50
15879;DHT22;61999;51.514;14.614;2023-07-28T05:14:16;12.00;78.10
15879;DHT22;61999;51.514;14.614;2023-07-28T05:16:44;11.90;78.60
15879;DHT22;61999;51.514;14.614;2023-07-28T05:19:13;11.80;79.00
15879;DHT22;61999;51.514;14.614;2023-07-28T05:21:41;11.90;79.40
15879;DHT22;61999;51.514;14.614;2023-07-28T05:24:09;11.90;79.00
15879;DHT22;61999;51.514;14.614;2023-07-28T05:26:37;11.90;78.90
15879;DHT22;61999;51.514;14.614;2023-07-28T05:29:06;12.00;78.30
15879;DHT22;61999;51.514;14.614;2023-07-28T05:31:34;12.00;78.40
15879;DHT22;61999;51.514;14.614;2023-07-28T05:34:03;12.00;78.40
15879;DHT22;61999;51.514;14.614;2023-07-28T05:36:31;12.00;78.60
15879;DHT22;61999;51.514;14.614;2023-07-28T05:39:01;12.30;77.70
15879;DHT22;61999;51.514;14.614;2023-07-28T05:41:29;12.40;77.20
15879;DHT22;61999;51.514;14.614;2023-07-28T05:43:57;12.30;77.30
15879;DHT22;61999;51.514;14.614;2023-07-28T05:46:26;12.20;78.10
15879;DHT22;61999;51.514;14.614;2023-07-28T05:48:55;12.40;77.00
15879;DHT22;61999;51.514;14.614;2023-07-28T05:51:23;12.20;77.30
15879;DHT22;61999;51.514;14.614;2023-07-28T05:53:51;12.10;78.10
15879;DHT22;61999;51.514;14.614;2023-07-28T05:56:20;12.10;78.00
15879;DHT22;61999;51.514;14.614;2023-07-28T05:58:49;12.20;78.00
15879;DHT22;61999;51.514;14.614;2023-07-28T06:01:18;12.20;78.20
15879;DHT22;61999;51.514;14.614;2023-07-28T06:03:47;12.40;78.10
15879;DHT22;61999;51.514;14.614;2023-07-28T06:06:16;12.40;76.80
15879;DHT22;61999;51.514;14.614;2023-07-28T06:08:45;12.40;76.90
15879;DHT22;61999;51.514;14.614;2023-07-28T06:11:13;12.30;77.30
15879;DHT22;61999;51.514;14.614;2023-07-28T06:13:41;12.20;77.40
15879;DHT22;61999;51.514;14.614;2023-07-28T06:16:09;12.20;78.10
15879;DHT22;61999;51.514;14.614;2023-07-28T06:18:37;12.40;77.10
15879;DHT22;61999;51.514;14.614;2023-07-28T06:21:06;12.50;76.90
15879;DHT22;61999;51.514;14.614;2023-07-28T06:23:34;12.60;76.90
15879;DHT22;61999;51.514;14.614;2023-07-28T06:26:02;12.50;76.90
15879;DHT22;61999;51.514;14.614;2023-07-28T06:28:30;12.50;76.90
15879;DHT22;61999;51.514;14.614;2023-07-28T06:30:58;12.50;77.00
15879;DHT22;61999;51.514;14.614;2023-07-28T06:33:28;12.50;77.00
15879;DHT22;61999;51.514;14.614;2023-07-28T06:35:56;12.50;77.40
15879;DHT22;61999;51.514;14.614;2023-07-28T06:38:25;12.50;76.80
15879;DHT22;61999;51.514;14.614;2023-07-28T06:40:53;12.50;76.90
15879;DHT22;61999;51.514;14.614;2023-07-28T06:43:21;12.70;76.40
15879;DHT22;61999;51.514;14.614;2023-07-28T06:45:50;12.70;76.30
15879;DHT22;61999;51.514;14.614;2023-07-28T06:48:19;12.80;76.20
15879;DHT22;61999;51.514;14.614;2023-07-28T06:50:47;12.70;76.30
15879;DHT22;61999;51.514;14.614;2023-07-28T06:53:15;12.80;76.00
15879;DHT22;61999;51.514;14.614;2023-07-28T06:55:44;13.00;75.40
15879;DHT22;61999;51.514;14.614;2023-07-28T06:58:12;12.90;75.40
15879;DHT22;61999;51.514;14.614;2023-07-28T07:00:40;13.00;75.00
15879;DHT22;61999;51.514;14.614;2023-07-28T07:03:09;13.00;75.20
15879;DHT22;61999;51.514;14.614;2023-07-28T07:05:38;12.90;74.90
15879;DHT22;61999;51.514;14.614;2023-07-28T07:08:06;12.60;76.30
15879;DHT22;61999;51.514;14.614;2023-07-28T07:10:35;12.60;76.30
15879;DHT22;61999;51.514;14.614;2023-07-28T07:13:04;12.70;75.90
15879;DHT22;61999;51.514;14.614;2023-07-28T07:15:33;12.90;75.30
15879;DHT22;61999;51.514;14.614;2023-07-28T07:18:02;12.90;74.80
15879;DHT22;61999;51.514;14.614;2023-07-28T07:20:30;12.80;75.60
15879;DHT22;61999;51.514;14.614;2023-07-28T07:23:01;12.80;76.10
15879;DHT22;61999;51.514;14.614;2023-07-28T07:25:29;13.10;74.90
15879;DHT22;61999;51.514;14.614;2023-07-28T07:27:57;13.20;74.60
15879;DHT22;61999;51.514;14.614;2023-07-28T07:30:26;13.40;73.70
15879;DHT22;61999;51.514;14.614;2023-07-28T07:32:54;13.40;73.60
15879;DHT22;61999;51.514;14.614;2023-07-28T07:35:22;13.50;73.80
15879;DHT22;61999;51.514;14.614;2023-07-28T07:37:50;13.80;71.90
15879;DHT22;61999;51.514;14.614;2023-07-28T07:40:18;13.80;71.40
15879;DHT22;61999;51.514;14.614;2023-07-28T07:42:48;13.70;72.10
15879;DHT22;61999;51.514;14.614;2023-07-28T07:45:17;13.90;71.00
15879;DHT22;61999;51.514;14.614;2023-07-28T07:47:46;14.00;70.60
15879;DHT22;61999;51.514;14.614;2023-07-28T07:50:15;13.70;71.50
15879;DHT22;61999;51.514;14.614;2023-07-28T07:52:42;13.70;71.80
15879;DHT22;61999;51.514;14.614;2023-07-28T07:55:10;13.80;72.20
15879;DHT22;61999;51.514;14.614;2023-07-28T07:57:38;13.90;71.90
15879;DHT22;61999;51.514;14.614;2023-07-28T08:00:08;14.10;71.20
15879;DHT22;61999;51.514;14.614;2023-07-28T08:02:37;14.00;70.20
15879;DHT22;61999;51.514;14.614;2023-07-28T08:05:07;13.80;70.80
15879;DHT22;61999;51.514;14.614;2023-07-28T08:07:36;13.60;71.60
15879;DHT22;61999;51.514;14.614;2023-07-28T08:10:05;13.60;71.50
15879;DHT22;61999;51.514;14.614;2023-07-28T08:12:33;13.50;71.60
15879;DHT22;61999;51.514;14.614;2023-07-28T08:15:01;13.30;72.60
15879;DHT22;61999;51.514;14.614;2023-07-28T08:17:30;13.30;72.70
15879;DHT22;61999;51.514;14.614;2023-07-28T08:19:57;13.70;71.20
15879;DHT22;61999;51.514;14.614;2023-07-28T08:22:27;13.70;71.20
15879;DHT22;61999;51.514;14.614;2023-07-28T08:24:54;13.60;71.20
15879;DHT22;61999;51.514;14.614;2023-07-28T08:27:22;13.60;71.30
15879;DHT22;61999;51.514;14.614;2023-07-28T08:29:51;13.50;71.50
15879;DHT22;61999;51.514;14.614;2023-07-28T08:32:19;13.40;72.00
15879;DHT22;61999;51.514;14.614;2023-07-28T08:34:47;13.50;72.10
15879;DHT22;61999;51.514;14.614;2023-07-28T08:37:15;13.70;71.60
15879;DHT22;61999;51.514;14.614;2023-07-28T08:39:45;13.70;71.70
15879;DHT22;61999;51.514;14.614;2023-07-28T08:42:13;13.90;71.00
15879;DHT22;61999;51.514;14.614;2023-07-28T08:44:41;14.00;70.40
15879;DHT22;61999;51.514;14.614;2023-07-28T08:47:10;14.10;70.70
15879;DHT22;61999;51.514;14.614;2023-07-28T08:49:38;14.20;69.90
15879;DHT22;61999;51.514;14.614;2023-07-28T08:52:06;14.40;69.50
15879;DHT22;61999;51.514;14.614;2023-07-28T08:54:34;14.60;70.20
15879;DHT22;61999;51.514;14.614;2023-07-28T08:57:04;15.00;67.90
15879;DHT22;61999;51.514;14.614;2023-07-28T08:59:33;15.10;67.70
15879;DHT22;61999;51.514;14.614;2023-07-28T09:02:02;15.30;67.30
15879;DHT22;61999;51.514;14.614;2023-07-28T09:04:32;15.60;67.00
15879;DHT22;61999;51.514;14.614;2023-07-28T09:07:04;15.80;65.30
15879;DHT22;61999;51.514;14.614;2023-07-28T09:09:33;15.80;63.90
15879;DHT22;61999;51.514;14.614;2023-07-28T09:12:01;15.60;63.70
15879;DHT22;61999;51.514;14.614;2023-07-28T09:14:35;15.30;65.90
15879;DHT22;61999;51.514;14.614;2023-07-28T09:17:08;15.60;65.00
15879;DHT22;61999;51.514;14.614;2023-07-28T09:19:50;15.70;64.20
15879;DHT22;61999;51.514;14.614;2023-07-28T09:22:19;15.70;65.30
15879;DHT22;61999;51.514;14.614;2023-07-28T09:24:48;15.80;65.40
15879;DHT22;61999;51.514;14.614;2023-07-28T09:27:22;16.20;63.00
15879;DHT22;61999;51.514;14.614;2023-07-28T09:29:54;16.30;62.30
15879;DHT22;61999;51.514;14.614;2023-07-28T09:32:28;16.20;63.10
15879;DHT22;61999;51.514;14.614;2023-07-28T09:35:07;16.30;61.90
15879;DHT22;61999;51.514;14.614;2023-07-28T09:37:38;16.50;61.70
15879;DHT22;61999;51.514;14.614;2023-07-28T09:40:09;16.70;61.30
15879;DHT22;61999;51.514;14.614;2023-07-28T09:42:39;16.90;60.00
15879;DHT22;61999;51.514;14.614;2023-07-28T09:45:09;16.80;61.30
15879;DHT22;61999;51.514;14.614;2023-07-28T09:47:46;17.10;60.20
15879;DHT22;61999;51.514;14.614;2023-07-28T09:50:16;17.30;58.90
15879;DHT22;61999;51.514;14.614;2023-07-28T09:52:48;17.30;59.80
15879;DHT22;61999;51.514;14.614;2023-07-28T09:55:20;17.60;59.20
15879;DHT22;61999;51.514;14.614;2023-07-28T09:57:51;17.70;56.90
15879;DHT22;61999;51.514;14.614;2023-07-28T10:00:23;17.30;58.40
15879;DHT22;61999;51.514;14.614;2023-07-28T10:02:52;17.20;58.70
15879;DHT22;61999;51.514;14.614;2023-07-28T10:05:20;17.30;57.80
15879;DHT22;61999;51.514;14.614;2023-07-28T10:07:49;17.30;58.20
15879;DHT22;61999;51.514;14.614;2023-07-28T10:10:17;17.30;58.00
15879;DHT22;61999;51.514;14.614;2023-07-28T10:12:47;17.40;57.30
15879;DHT22;61999;51.514;14.614;2023-07-28T10:15:17;17.30;58.00
15879;DHT22;61999;51.514;14.614;2023-07-28T10:17:50;17.40;58.10
15879;DHT22;61999;51.514;14.614;2023-07-28T10:20:29;17.60;57.90
15879;DHT22;61999;51.514;14.614;2023-07-28T10:23:10;17.80;56.30
15879;DHT22;61999;51.514;14.614;2023-07-28T10:25:41;18.00;56.40
15879;DHT22;61999;51.514;14.614;2023-07-28T10:28:26;18.10;56.30
15879;DHT22;61999;51.514;14.614;2023-07-28T10:30:55;18.30;56.20
15879;DHT22;61999;51.514;14.614;2023-07-28T10:33:32;18.60;55.80
15879;DHT22;61999;51.514;14.614;2023-07-28T10:36:12;19.00;54.40
15879;DHT22;61999;51.514;14.614;2023-07-28T10:38:42;19.20;53.20
15879;DHT22;61999;51.514;14.614;2023-07-28T10:41:13;19.30;53.80
15879;DHT22;61999;51.514;14.614;2023-07-28T10:43:42;19.50;52.80
15879;DHT22;61999;51.514;14.614;2023-07-28T10:46:16;19.40;54.00
15879;DHT22;61999;51.514;14.614;2023-07-28T10:48:48;19.50;53.10
15879;DHT22;61999;51.514;14.614;2023-07-28T10:51:22;19.70;52.10
15879;DHT22;61999;51.514;14.614;2023-07-28T10:53:51;19.40;51.80
15879;DHT22;61999;51.514;14.614;2023-07-28T10:56:22;19.20;52.50
15879;DHT22;61999;51.514;14.614;2023-07-28T10:58:56;19.10;53.10
15879;DHT22;61999;51.514;14.614;2023-07-28T11:01:30;19.20;52.80
15879;DHT22;61999;51.514;14.614;2023-07-28T11:04:08;19.40;52.70
15879;DHT22;61999;51.514;14.614;2023-07-28T11:06:37;19.60;53.00
15879;DHT22;61999;51.514;14.614;2023-07-28T11:09:07;19.70;53.20
15879;DHT22;61999;51.514;14.614;2023-07-28T11:11:37;19.80;53.20
15879;DHT22;61999;51.514;14.614;2023-07-28T11:14:06;20.20;50.50
15879;DHT22;61999;51.514;14.614;2023-07-28T11:16:37;20.40;49.10
15879;DHT22;61999;51.514;14.614;2023-07-28T11:19:10;20.40;51.00
15879;DHT22;61999;51.514;14.614;2023-07-28T11:21:41;20.50;50.10
15879;DHT22;61999;51.514;14.614;2023-07-28T11:24:10;20.70;49.20
15879;DHT22;61999;51.514;14.614;2023-07-28T11:26:39;20.80;49.20
15879;DHT22;61999;51.514;14.614;2023-07-28T11:29:07;20.70;50.00
15879;DHT22;61999;51.514;14.614;2023-07-28T11:31:35;20.80;48.80
15879;DHT22;61999;51.514;14.614;2023-07-28T11:34:04;20.80;48.40
15879;DHT22;61999;51.514;14.614;2023-07-28T11:36:42;20.60;49.60
15879;DHT22;61999;51.514;14.614;2023-07-28T11:39:10;20.60;49.60
15879;DHT22;61999;51.514;14.614;2023-07-28T11:41:39;20.70;48.50
15879;DHT22;61999;51.514;14.614;2023-07-28T11:44:07;20.40;50.10
15879;DHT22;61999;51.514;14.614;2023-07-28T11:46:37;20.40;49.60
15879;DHT22;61999;51.514;14.614;2023-07-28T11:49:10;20.30;51.10
15879;DHT22;61999;51.514;14.614;2023-07-28T11:51:41;20.50;50.50
15879;DHT22;61999;51.514;14.614;2023-07-28T11:54:12;20.80;48.90
15879;DHT22;61999;51.514;14.614;2023-07-28T11:56:42;20.90;48.80
15879;DHT22;61999;51.514;14.614;2023-07-28T11:59:15;21.00;48.70
15879;DHT22;61999;51.514;14.614;2023-07-28T12:01:54;20.90;49.60
15879;DHT22;61999;51.514;14.614;2023-07-28T12:04:27;20.90;48.90
15879;DHT22;61999;51.514;14.614;2023-07-28T12:07:06;20.90;48.40
15879;DHT22;61999;51.514;14.614;2023-07-28T12:09:48;21.10;48.20
15879;DHT22;61999;51.514;14.614;2023-07-28T12:12:29;21.00;49.30
15879;DHT22;61999;51.514;14.614;2023-07-28T12:15:01;21.30;49.10
15879;DHT22;61999;51.514;14.614;2023-07-28T12:18:05;21.60;47.60
15879;DHT22;61999;51.514;14.614;2023-07-28T12:20:40;21.70;46.50
15879;DHT22;61999;51.514;14.614;2023-07-28T12:23:10;21.80;46.70
15879;DHT22;61999;51.514;14.614;2023-07-28T12:25:42;21.70;47.00
15879;DHT22;61999;51.514;14.614;2023-07-28T12:28:11;21.80;47.40
15879;DHT22;61999;51.514;14.614;2023-07-28T12:30:42;22.10;46.50
15879;DHT22;61999;51.514;14.614;2023-07-28T12:33:11;22.20;45.10
15879;DHT22;61999;51.514;14.614;2023-07-28T12:35:42;22.30;44.80
15879;DHT22;61999;51.514;14.614;2023-07-28T12:38:14;22.30;45.20
15879;DHT22;61999;51.514;14.614;2023-07-28T12:40:45;22.30;45.50
15879;DHT22;61999;51.514;14.614;2023-07-28T12:43:15;22.30;44.60
15879;DHT22;61999;51.514;14.614;2023-07-28T12:45:46;22.30;45.80
15879;DHT22;61999;51.514;14.614;2023-07-28T12:48:17;22.80;44.10
15879;DHT22;61999;51.514;14.614;2023-07-28T12:50:46;23.00;43.90
15879;DHT22;61999;51.514;14.614;2023-07-28T12:53:16;23.00;45.20
15879;DHT22;61999;51.514;14.614;2023-07-28T12:55:45;23.30;44.40
15879;DHT22;61999;51.514;14.614;2023-07-28T12:58:16;23.90;42.60
15879;DHT22;61999;51.514;14.614;2023-07-28T13:00:47;23.90;42.00
15879;DHT22;61999;51.514;14.614;2023-07-28T13:03:18;24.10;42.40
15879;DHT22;61999;51.514;14.614;2023-07-28T13:05:46;24.40;42.00
15879;DHT22;61999;51.514;14.614;2023-07-28T13:08:16;24.90;39.80
15879;DHT22;61999;51.514;14.614;2023-07-28T13:10:44;24.70;39.90
15879;DHT22;61999;51.514;14.614;2023-07-28T13:13:15;24.90;41.20
15879;DHT22;61999;51.514;14.614;2023-07-28T13:15:43;25.30;39.60
15879;DHT22;61999;51.514;14.614;2023-07-28T13:18:10;25.40;39.60
15879;DHT22;61999;51.514;14.614;2023-07-28T13:20:38;25.50;39.20
15879;DHT22;61999;51.514;14.614;2023-07-28T13:23:06;25.30;38.50
15879;DHT22;61999;51.514;14.614;2023-07-28T13:25:35;25.10;38.80
15879;DHT22;61999;51.514;14.614;2023-07-28T13:28:04;24.90;38.60
15879;DHT22;61999;51.514;14.614;2023-07-28T13:30:32;24.70;39.70
15879;DHT22;61999;51.514;14.614;2023-07-28T13:33:00;24.20;39.70
15879;DHT22;61999;51.514;14.614;2023-07-28T13:35:30;23.40;41.30
15879;DHT22;61999;51.514;14.614;2023-07-28T13:37:57;22.80;42.40
15879;DHT22;61999;51.514;14.614;2023-07-28T13:40:26;22.50;43.60
15879;DHT22;61999;51.514;14.614;2023-07-28T13:42:55;22.40;42.90
15879;DHT22;61999;51.514;14.614;2023-07-28T13:45:23;22.50;42.70
15879;DHT22;61999;51.514;14.614;2023-07-28T13:47:51;22.60;42.50
15879;DHT22;61999;51.514;14.614;2023-07-28T13:50:19;22.60;43.50
15879;DHT22;61999;51.514;14.614;2023-07-28T13:52:47;22.90;43.50
15879;DHT22;61999;51.514;14.614;2023-07-28T13:55:15;23.30;41.80
15879;DHT22;61999;51.514;14.614;2023-07-28T13:57:44;23.50;42.30
15879;DHT22;61999;51.514;14.614;2023-07-28T14:00:14;23.30;41.10
15879;DHT22;61999;51.514;14.614;2023-07-28T14:02:42;23.10;42.00
15879;DHT22;61999;51.514;14.614;2023-07-28T14:05:10;23.20;42.90
15879;DHT22;61999;51.514;14.614;2023-07-28T14:07:38;23.50;41.20
15879;DHT22;61999;51.514;14.614;2023-07-28T14:10:06;23.40;41.40
15879;DHT22;61999;51.514;14.614;2023-07-28T14:12:34;23.40;40.90
15879;DHT22;61999;51.514;14.614;2023-07-28T14:15:03;23.20;41.80
15879;DHT22;61999;51.514;14.614;2023-07-28T14:17:34;23.20;42.50
15879;DHT22;61999;51.514;14.614;2023-07-28T14:20:02;23.60;42.30
15879;DHT22;61999;51.514;14.614;2023-07-28T14:22:32;24.10;40.50
15879;DHT22;61999;51.514;14.614;2023-07-28T14:25:00;24.40;40.30
15879;DHT22;61999;51.514;14.614;2023-07-28T14:27:28;24.70;39.80
15879;DHT22;61999;51.514;14.614;2023-07-28T14:29:56;24.80;39.80
15879;DHT22;61999;51.514;14.614;2023-07-28T14:32:24;24.80;39.50
15879;DHT22;61999;51.514;14.614;2023-07-28T14:34:53;24.90;38.50
15879;DHT22;61999;51.514;14.614;2023-07-28T14:37:21;24.70;38.90
15879;DHT22;61999;51.514;14.614;2023-07-28T14:39:49;24.50;39.30
15879;DHT22;61999;51.514;14.614;2023-07-28T14:42:17;24.20;40.00
15879;DHT22;61999;51.514;14.614;2023-07-28T14:44:45;24.30;40.80
15879;DHT22;61999;51.514;14.614;2023-07-28T14:47:13;24.50;41.00
15879;DHT22;61999;51.514;14.614;2023-07-28T14:49:41;24.80;40.40
15879;DHT22;61999;51.514;14.614;2023-07-28T14:52:10;25.40;38.40
15879;DHT22;61999;51.514;14.614;2023-07-28T14:54:38;25.50;37.80
15879;DHT22;61999;51.514;14.614;2023-07-28T14:57:06;25.60;37.40
15879;DHT22;61999;51.514;14.614;2023-07-28T14:59:46;25.40;38.50
15879;DHT22;61999;51.514;14.614;2023-07-28T15:02:14;25.50;38.40
15879;DHT22;61999;51.514;14.614;2023-07-28T15:04:42;25.90;37.60
15879;DHT22;61999;51.514;14.614;2023-07-28T15:07:13;26.30;37.20
15879;DHT22;61999;51.514;14.614;2023-07-28T15:09:41;26.60;37.70
15879;DHT22;61999;51.514;14.614;2023-07-28T15:12:09;26.90;37.30
15879;DHT22;61999;51.514;14.614;2023-07-28T15:14:37;27.10;36.60
15879;DHT22;61999;51.514;14.614;2023-07-28T15:17:05;27.50;35.90
15879;DHT22;61999;51.514;14.614;2023-07-28T15:19:33;27.50;35.60
15879;DHT22;61999;51.514;14.614;2023-07-28T15:22:01;27.60;34.90
15879;DHT22;61999;51.514;14.614;2023-07-28T15:24:31;27.60;33.70
15879;DHT22;61999;51.514;14.614;2023-07-28T15:26:59;27.30;34.60
15879;DHT22;61999;51.514;14.614;2023-07-28T15:29:44;27.20;35.10